sensor_id;sensor_type;location;lat;lon;timestamp;temperature;humidity
57106;DHT22;62662;56.788;23.942;2022-08-19T00:01:31;20.80;99.90
57106;DHT22;62662;56.788;23.942;2022-08-19T00:04:06;20.80;99.90
57106;DHT22;62662;56.788;23.942;2022-08-19T00:06:35;20.80;99.90
57106;DHT22;62662;56.788;23.942;2022-08-19T00:09:05;20.70;99.90
57106;DHT22;62662;56.788;23.942;2022-08-19T00:11:33;20.70;99.90
57106;DHT22;62662;56.788;23.942;2022-08-19T00:14:01;20.60;99.90
57106;DHT22;62662;56.788;23.942;2022-08-19T00:16:28;20.50;99.90
57106;DHT22;62662;56.788;23.942;2022-08-19T00:18:56;20.40;99.90
57106;DHT22;62662;56.788;23.942;2022-08-19T00:21:25;20.40;99.90
57106;DHT22;62662;56.788;23.942;2022-08-19T00:23:54;20.30;99.90
57106;DHT22;62662;56.788;23.942;2022-08-19T00:26:26;20.30;99.90
57106;DHT22;62662;56.788;23.942;2022-08-19T00:28:54;20.30;99.90
57106;DHT22;62662;56.788;23.942;2022-08-19T00:31:21;20.40;99.90
57106;DHT22;62662;56.788;23.942;2022-08-19T00:33:48;20.40;99.90
57106;DHT22;62662;56.788;23.942;2022-08-19T00:36:18;20.40;99.90
57106;DHT22;62662;56.788;23.942;2022-08-19T00:38:46;20.50;99.90
57106;DHT22;62662;56.788;23.942;2022-08-19T00:41:14;20.60;99.90
57106;DHT22;62662;56.788;23.942;2022-08-19T00:43:42;20.60;99.90
57106;DHT22;62662;56.788;23.942;2022-08-19T00:46:09;20.50;99.90
57106;DHT22;62662;56.788;23.942;2022-08-19T00:48:36;20.40;99.90
57106;DHT22;62662;56.788;23.942;2022-08-19T00:51:04;20.40;99.90
57106;DHT22;62662;56.788;23.942;2022-08-19T00:53:32;20.40;99.90
57106;DHT22;62662;56.788;23.942;2022-08-19T00:56:02;20.30;99.90
57106;DHT22;62662;56.788;23.942;2022-08-19T00:58:34;20.40;99.90
57106;DHT22;62662;56.788;23.942;2022-08-19T01:01:04;20.30;99.90
57106;DHT22;62662;56.788;23.942;2022-08-19T01:03:31;20.30;99.90
57106;DHT22;62662;56.788;23.942;2022-08-19T01:06:18;20.30;99.90
57106;DHT22;62662;56.788;23.942;2022-08-19T01:08:46;20.30;99.90
57106;DHT22;62662;56.788;23.942;2022-08-19T01:11:16;20.30;99.90
57106;DHT22;62662;56.788;23.942;2022-08-19T01:13:44;20.30;99.90
57106;DHT22;62662;56.788;23.942;2022-08-19T01:16:17;20.20;99.90
57106;DHT22;62662;56.788;23.942;2022-08-19T01:18:44;20.30;99.90
57106;DHT22;62662;56.788;23.942;2022-08-19T01:23:57;20.30;99.90
57106;DHT22;62662;56.788;23.942;2022-08-19T01:26:25;20.20;99.90
57106;DHT22;62662;56.788;23.942;2022-08-19T01:28:56;20.10;99.90
57106;DHT22;62662;56.788;23.942;2022-08-19T01:31:28;20.00;99.90
57106;DHT22;62662;56.788;23.942;2022-08-19T01:34:00;19.90;99.90
57106;DHT22;62662;56.788;23.942;2022-08-19T01:39:01;19.80;99.90
57106;DHT22;62662;56.788;23.942;2022-08-19T01:41:29;19.80;99.90
57106;DHT22;62662;56.788;23.942;2022-08-19T01:43:56;19.70;99.90
57106;DHT22;62662;56.788;23.942;2022-08-19T01:46:43;19.70;99.90
57106;DHT22;62662;56.788;23.942;2022-08-19T01:49:10;19.70;99.90
57106;DHT22;62662;56.788;23.942;2022-08-19T01:51:38;19.70;99.90
57106;DHT22;62662;56.788;23.942;2022-08-19T01:54:09;19.70;99.90
57106;DHT22;62662;56.788;23.942;2022-08-19T01:56:36;19.70;99.90
57106;DHT22;62662;56.788;23.942;2022-08-19T01:59:06;19.70;99.90
57106;DHT22;62662;56.788;23.942;2022-08-19T02:01:35;19.80;99.90
57106;DHT22;62662;56.788;23.942;2022-08-19T02:04:02;19.80;99.90
57106;DHT22;62662;56.788;23.942;2022-08-19T02:06:29;19.70;99.90
57106;DHT22;62662;56.788;23.942;2022-08-19T02:08:57;19.70;99.90
57106;DHT22;62662;56.788;23.942;2022-08-19T02:11:31;19.60;99.90
57106;DHT22;62662;56.788;23.942;2022-08-19T02:13:59;19.70;99.90
57106;DHT22;62662;56.788;23.942;2022-08-19T02:16:26;19.60;99.90
57106;DHT22;62662;56.788;23.942;2022-08-19T02:18:53;19.60;99.90
57106;DHT22;62662;56.788;23.942;2022-08-19T02:21:23;19.60;99.90
57106;DHT22;62662;56.788;23.942;2022-08-19T02:23:50;19.60;99.90
57106;DHT22;62662;56.788;23.942;2022-08-19T02:26:18;19.60;99.90
57106;DHT22;62662;56.788;23.942;2022-08-19T02:28:46;19.50;99.90
57106;DHT22;62662;56.788;23.942;2022-08-19T02:31:19;19.50;99.90
57106;DHT22;62662;56.788;23.942;2022-08-19T02:33:47;19.50;99.90
57106;DHT22;62662;56.788;23.942;2022-08-19T02:36:16;19.60;99.90
57106;DHT22;62662;56.788;23.942;2022-08-19T02:38:46;19.50;99.90
57106;DHT22;62662;56.788;23.942;2022-08-19T02:41:26;19.60;99.90
57106;DHT22;62662;56.788;23.942;2022-08-19T02:43:59;19.60;99.90
57106;DHT22;62662;56.788;23.942;2022-08-19T02:46:48;19.60;99.90
57106;DHT22;62662;56.788;23.942;2022-08-19T02:49:18;19.80;99.90
57106;DHT22;62662;56.788;23.942;2022-08-19T02:51:45;19.80;99.90
57106;DHT22;62662;56.788;23.942;2022-08-19T02:54:14;19.80;99.90
57106;DHT22;62662;56.788;23.942;2022-08-19T02:56:42;19.80;99.90
57106;DHT22;62662;56.788;23.942;2022-08-19T02:59:10;19.80;99.90
57106;DHT22;62662;56.788;23.942;2022-08-19T03:01:40;19.80;99.90
57106;DHT22;62662;56.788;23.942;2022-08-19T03:04:14;19.70;99.90
57106;DHT22;62662;56.788;23.942;2022-08-19T03:06:44;19.60;99.90
57106;DHT22;62662;56.788;23.942;2022-08-19T03:09:12;19.50;99.90
57106;DHT22;62662;56.788;23.942;2022-08-19T03:11:39;19.40;99.90
57106;DHT22;62662;56.788;23.942;2022-08-19T03:14:08;19.50;99.90
57106;DHT22;62662;56.788;23.942;2022-08-19T03:16:44;19.50;99.90
57106;DHT22;62662;56.788;23.942;2022-08-19T03:19:12;19.50;99.90
57106;DHT22;62662;56.788;23.942;2022-08-19T03:21:39;19.60;99.90
57106;DHT22;62662;56.788;23.942;2022-08-19T03:24:07;19.60;99.90
57106;DHT22;62662;56.788;23.942;2022-08-19T03:26:39;19.70;99.90
57106;DHT22;62662;56.788;23.942;2022-08-19T03:29:06;19.80;99.90
57106;DHT22;62662;56.788;23.942;2022-08-19T03:31:36;19.80;99.90
57106;DHT22;62662;56.788;23.942;2022-08-19T03:34:22;19.80;99.90
57106;DHT22;62662;56.788;23.942;2022-08-19T03:36:49;19.80;99.90
57106;DHT22;62662;56.788;23.942;2022-08-19T03:39:17;19.80;99.90
57106;DHT22;62662;56.788;23.942;2022-08-19T03:41:45;19.80;99.90
57106;DHT22;62662;56.788;23.942;2022-08-19T03:44:16;20.00;99.90
57106;DHT22;62662;56.788;23.942;2022-08-19T03:46:51;20.00;99.90
57106;DHT22;62662;56.788;23.942;2022-08-19T03:49:19;20.10;99.90
57106;DHT22;62662;56.788;23.942;2022-08-19T03:51:53;20.30;99.90
57106;DHT22;62662;56.788;23.942;2022-08-19T03:54:23;20.40;99.90
57106;DHT22;62662;56.788;23.942;2022-08-19T03:56:52;20.50;99.90
57106;DHT22;62662;56.788;23.942;2022-08-19T03:59:25;20.60;99.90
57106;DHT22;62662;56.788;23.942;2022-08-19T04:01:57;20.70;99.90
57106;DHT22;62662;56.788;23.942;2022-08-19T04:04:25;20.80;99.90
57106;DHT22;62662;56.788;23.942;2022-08-19T04:06:55;20.90;99.90
57106;DHT22;62662;56.788;23.942;2022-08-19T04:09:23;21.00;99.90
57106;DHT22;62662;56.788;23.942;2022-08-19T04:11:52;21.20;99.90
57106;DHT22;62662;56.788;23.942;2022-08-19T04:14:26;21.20;99.90
57106;DHT22;62662;56.788;23.942;2022-08-19T04:16:53;21.30;99.90
57106;DHT22;62662;56.788;23.942;2022-08-19T04:19:20;21.40;99.90
57106;DHT22;62662;56.788;23.942;2022-08-19T04:21:49;21.50;99.90
57106;DHT22;62662;56.788;23.942;2022-08-19T04:24:17;21.60;99.90
57106;DHT22;62662;56.788;23.942;2022-08-19T04:26:45;21.70;99.90
57106;DHT22;62662;56.788;23.942;2022-08-19T04:29:15;21.80;99.90
57106;DHT22;62662;56.788;23.942;2022-08-19T04:31:44;21.90;99.90
57106;DHT22;62662;56.788;23.942;2022-08-19T04:34:13;22.10;99.90
57106;DHT22;62662;56.788;23.942;2022-08-19T04:36:43;22.10;99.90
57106;DHT22;62662;56.788;23.942;2022-08-19T04:39:15;22.20;99.90
57106;DHT22;62662;56.788;23.942;2022-08-19T04:41:43;22.30;99.90
57106;DHT22;62662;56.788;23.942;2022-08-19T04:44:30;22.50;99.90
57106;DHT22;62662;56.788;23.942;2022-08-19T04:46:59;22.70;99.90
57106;DHT22;62662;56.788;23.942;2022-08-19T04:49:27;22.70;99.90
57106;DHT22;62662;56.788;23.942;2022-08-19T04:51:54;22.90;99.90
57106;DHT22;62662;56.788;23.942;2022-08-19T04:54:24;23.20;99.90
57106;DHT22;62662;56.788;23.942;2022-08-19T04:57:06;23.40;99.90
57106;DHT22;62662;56.788;23.942;2022-08-19T04:59:34;23.60;99.90
57106;DHT22;62662;56.788;23.942;2022-08-19T05:02:03;23.90;99.90
57106;DHT22;62662;56.788;23.942;2022-08-19T05:04:30;24.20;99.90
57106;DHT22;62662;56.788;23.942;2022-08-19T05:06:59;24.40;99.90
57106;DHT22;62662;56.788;23.942;2022-08-19T05:09:29;24.70;99.90
57106;DHT22;62662;56.788;23.942;2022-08-19T05:12:17;25.00;99.90
57106;DHT22;62662;56.788;23.942;2022-08-19T05:14:45;25.10;99.90
57106;DHT22;62662;56.788;23.942;2022-08-19T05:17:14;25.30;99.90
57106;DHT22;62662;56.788;23.942;2022-08-19T05:20:02;25.40;99.90
57106;DHT22;62662;56.788;23.942;2022-08-19T05:22:48;25.40;99.90
57106;DHT22;62662;56.788;23.942;2022-08-19T05:25:18;25.30;99.90
57106;DHT22;62662;56.788;23.942;2022-08-19T05:27:47;25.60;99.90
57106;DHT22;62662;56.788;23.942;2022-08-19T05:30:15;25.80;99.90
57106;DHT22;62662;56.788;23.942;2022-08-19T05:32:43;26.20;99.90
57106;DHT22;62662;56.788;23.942;2022-08-19T05:35:10;26.10;99.90
57106;DHT22;62662;56.788;23.942;2022-08-19T05:37:38;25.90;99.90
57106;DHT22;62662;56.788;23.942;2022-08-19T05:40:08;25.90;99.90
57106;DHT22;62662;56.788;23.942;2022-08-19T05:42:35;25.80;99.90
57106;DHT22;62662;56.788;23.942;2022-08-19T05:45:03;25.60;99.90
57106;DHT22;62662;56.788;23.942;2022-08-19T05:47:31;25.70;99.90
57106;DHT22;62662;56.788;23.942;2022-08-19T05:49:58;25.70;99.90
57106;DHT22;62662;56.788;23.942;2022-08-19T05:52:26;25.60;99.90
57106;DHT22;62662;56.788;23.942;2022-08-19T05:54:56;25.60;99.90
57106;DHT22;62662;56.788;23.942;2022-08-19T05:57:23;25.70;99.90
57106;DHT22;62662;56.788;23.942;2022-08-19T05:59:51;25.80;99.90
57106;DHT22;62662;56.788;23.942;2022-08-19T06:02:28;25.90;99.90
57106;DHT22;62662;56.788;23.942;2022-08-19T06:04:58;26.40;99.90
57106;DHT22;62662;56.788;23.942;2022-08-19T06:07:25;26.60;99.90
57106;DHT22;62662;56.788;23.942;2022-08-19T06:09:53;27.00;99.90
57106;DHT22;62662;56.788;23.942;2022-08-19T06:12:31;28.10;99.90
57106;DHT22;62662;56.788;23.942;2022-08-19T06:15:07;30.00;99.90
57106;DHT22;62662;56.788;23.942;2022-08-19T06:17:35;31.60;98.80
57106;DHT22;62662;56.788;23.942;2022-08-19T06:20:07;32.30;96.70
57106;DHT22;62662;56.788;23.942;2022-08-19T06:22:45;32.90;94.80
57106;DHT22;62662;56.788;23.942;2022-08-19T06:25:14;33.90;93.30
57106;DHT22;62662;56.788;23.942;2022-08-19T06:27:42;33.60;92.10
57106;DHT22;62662;56.788;23.942;2022-08-19T06:30:29;33.70;91.60
57106;DHT22;62662;56.788;23.942;2022-08-19T06:33:01;34.20;90.60
57106;DHT22;62662;56.788;23.942;2022-08-19T06:35:28;34.60;89.10
57106;DHT22;62662;56.788;23.942;2022-08-19T06:37:57;35.00;87.80
57106;DHT22;62662;56.788;23.942;2022-08-19T06:40:24;35.50;85.60
57106;DHT22;62662;56.788;23.942;2022-08-19T06:42:54;36.50;82.50
57106;DHT22;62662;56.788;23.942;2022-08-19T06:45:26;35.80;81.10
57106;DHT22;62662;56.788;23.942;2022-08-19T06:48:05;33.70;84.30
57106;DHT22;62662;56.788;23.942;2022-08-19T06:50:33;31.70;89.10
57106;DHT22;62662;56.788;23.942;2022-08-19T06:53:05;30.30;91.60
57106;DHT22;62662;56.788;23.942;2022-08-19T06:55:32;29.50;93.40
57106;DHT22;62662;56.788;23.942;2022-08-19T06:58:03;29.20;94.10
57106;DHT22;62662;56.788;23.942;2022-08-19T07:00:32;29.50;94.30
57106;DHT22;62662;56.788;23.942;2022-08-19T07:03:00;29.30;94.30
57106;DHT22;62662;56.788;23.942;2022-08-19T07:05:39;29.20;94.00
57106;DHT22;62662;56.788;23.942;2022-08-19T07:08:11;29.00;95.00
57106;DHT22;62662;56.788;23.942;2022-08-19T07:10:43;28.50;95.60
57106;DHT22;62662;56.788;23.942;2022-08-19T07:13:10;28.50;95.90
57106;DHT22;62662;56.788;23.942;2022-08-19T07:15:38;28.60;95.60
57106;DHT22;62662;56.788;23.942;2022-08-19T07:18:05;28.60;96.30
57106;DHT22;62662;56.788;23.942;2022-08-19T07:20:37;28.60;96.30
57106;DHT22;62662;56.788;23.942;2022-08-19T07:23:08;28.40;96.30
57106;DHT22;62662;56.788;23.942;2022-08-19T07:25:41;28.20;96.60
57106;DHT22;62662;56.788;23.942;2022-08-19T07:28:10;28.10;96.90
57106;DHT22;62662;56.788;23.942;2022-08-19T07:30:51;28.20;97.20
57106;DHT22;62662;56.788;23.942;2022-08-19T07:33:19;28.10;97.30
57106;DHT22;62662;56.788;23.942;2022-08-19T07:35:46;28.30;97.70
57106;DHT22;62662;56.788;23.942;2022-08-19T07:38:13;28.40;97.50
57106;DHT22;62662;56.788;23.942;2022-08-19T07:40:42;28.40;97.50
57106;DHT22;62662;56.788;23.942;2022-08-19T07:43:10;28.40;97.10
57106;DHT22;62662;56.788;23.942;2022-08-19T07:45:43;28.10;97.70
57106;DHT22;62662;56.788;23.942;2022-08-19T07:48:11;28.10;98.20
57106;DHT22;62662;56.788;23.942;2022-08-19T07:50:38;28.00;98.00
57106;DHT22;62662;56.788;23.942;2022-08-19T07:53:05;28.10;98.10
57106;DHT22;62662;56.788;23.942;2022-08-19T07:55:32;28.10;98.00
57106;DHT22;62662;56.788;23.942;2022-08-19T07:58:10;28.20;98.50
57106;DHT22;62662;56.788;23.942;2022-08-19T08:00:38;28.50;98.30
57106;DHT22;62662;56.788;23.942;2022-08-19T08:03:05;28.70;97.60
57106;DHT22;62662;56.788;23.942;2022-08-19T08:05:32;28.80;97.70
57106;DHT22;62662;56.788;23.942;2022-08-19T08:08:18;28.90;97.50
57106;DHT22;62662;56.788;23.942;2022-08-19T08:11:11;28.80;97.90
57106;DHT22;62662;56.788;23.942;2022-08-19T08:13:41;29.00;97.20
57106;DHT22;62662;56.788;23.942;2022-08-19T08:16:08;29.30;97.50
57106;DHT22;62662;56.788;23.942;2022-08-19T08:18:39;29.30;97.00
57106;DHT22;62662;56.788;23.942;2022-08-19T08:21:16;29.70;96.50
57106;DHT22;62662;56.788;23.942;2022-08-19T08:23:43;30.10;96.60
57106;DHT22;62662;56.788;23.942;2022-08-19T08:26:10;29.60;95.50
57106;DHT22;62662;56.788;23.942;2022-08-19T08:28:41;29.70;95.30
57106;DHT22;62662;56.788;23.942;2022-08-19T08:31:15;30.20;94.70
57106;DHT22;62662;56.788;23.942;2022-08-19T08:33:42;30.40;94.80
57106;DHT22;62662;56.788;23.942;2022-08-19T08:36:11;30.80;93.80
57106;DHT22;62662;56.788;23.942;2022-08-19T08:38:42;30.80;93.80
57106;DHT22;62662;56.788;23.942;2022-08-19T08:41:27;31.70;93.20
57106;DHT22;62662;56.788;23.942;2022-08-19T08:43:56;32.00;91.90
57106;DHT22;62662;56.788;23.942;2022-08-19T08:46:39;31.80;91.90
57106;DHT22;62662;56.788;23.942;2022-08-19T08:51:52;31.10;92.50
57106;DHT22;62662;56.788;23.942;2022-08-19T08:54:30;31.10;92.70
57106;DHT22;62662;56.788;23.942;2022-08-19T08:57:06;31.00;92.50
57106;DHT22;62662;56.788;23.942;2022-08-19T08:59:39;30.70;92.80
57106;DHT22;62662;56.788;23.942;2022-08-19T09:02:08;30.80;92.90
57106;DHT22;62662;56.788;23.942;2022-08-19T09:04:36;30.80;93.20
57106;DHT22;62662;56.788;23.942;2022-08-19T09:09:52;30.80;93.30
57106;DHT22;62662;56.788;23.942;2022-08-19T09:12:45;31.10;92.80
57106;DHT22;62662;56.788;23.942;2022-08-19T09:15:18;31.40;92.90
57106;DHT22;62662;56.788;23.942;2022-08-19T09:18:01;31.30;92.60
57106;DHT22;62662;56.788;23.942;2022-08-19T09:20:32;31.50;92.00
57106;DHT22;62662;56.788;23.942;2022-08-19T09:23:00;31.60;92.20
57106;DHT22;62662;56.788;23.942;2022-08-19T09:25:28;32.10;91.60
57106;DHT22;62662;56.788;23.942;2022-08-19T09:27:55;32.00;91.10
57106;DHT22;62662;56.788;23.942;2022-08-19T09:30:32;31.80;91.70
57106;DHT22;62662;56.788;23.942;2022-08-19T09:33:00;31.60;91.50
57106;DHT22;62662;56.788;23.942;2022-08-19T09:35:29;31.90;91.60
57106;DHT22;62662;56.788;23.942;2022-08-19T09:37:58;31.90;91.10
57106;DHT22;62662;56.788;23.942;2022-08-19T09:40:27;31.60;91.80
57106;DHT22;62662;56.788;23.942;2022-08-19T09:42:56;31.50;91.80
57106;DHT22;62662;56.788;23.942;2022-08-19T09:45:24;31.80;91.60
57106;DHT22;62662;56.788;23.942;2022-08-19T09:47:52;32.20;90.80
57106;DHT22;62662;56.788;23.942;2022-08-19T09:50:22;32.50;90.40
57106;DHT22;62662;56.788;23.942;2022-08-19T09:52:50;32.60;90.60
57106;DHT22;62662;56.788;23.942;2022-08-19T09:55:24;33.10;90.40
57106;DHT22;62662;56.788;23.942;2022-08-19T09:58:00;32.70;89.10
57106;DHT22;62662;56.788;23.942;2022-08-19T10:00:27;32.70;87.60
57106;DHT22;62662;56.788;23.942;2022-08-19T10:02:54;33.10;87.40
57106;DHT22;62662;56.788;23.942;2022-08-19T10:05:21;33.30;87.20
57106;DHT22;62662;56.788;23.942;2022-08-19T10:08:09;33.40;86.30
57106;DHT22;62662;56.788;23.942;2022-08-19T10:10:40;33.50;85.80
57106;DHT22;62662;56.788;23.942;2022-08-19T10:13:14;33.20;85.00
57106;DHT22;62662;56.788;23.942;2022-08-19T10:15:42;33.40;82.70
57106;DHT22;62662;56.788;23.942;2022-08-19T10:18:17;33.60;82.80
57106;DHT22;62662;56.788;23.942;2022-08-19T10:20:46;33.90;81.10
57106;DHT22;62662;56.788;23.942;2022-08-19T10:23:19;33.70;80.60
57106;DHT22;62662;56.788;23.942;2022-08-19T10:25:48;33.70;78.70
57106;DHT22;62662;56.788;23.942;2022-08-19T10:28:15;33.70;78.70
57106;DHT22;62662;56.788;23.942;2022-08-19T10:30:45;33.90;78.90
57106;DHT22;62662;56.788;23.942;2022-08-19T10:33:13;33.90;78.70
57106;DHT22;62662;56.788;23.942;2022-08-19T10:36:11;33.90;78.00
57106;DHT22;62662;56.788;23.942;2022-08-19T10:38:47;33.70;77.20
57106;DHT22;62662;56.788;23.942;2022-08-19T10:41:25;33.60;76.70
57106;DHT22;62662;56.788;23.942;2022-08-19T10:43:55;33.80;77.20
57106;DHT22;62662;56.788;23.942;2022-08-19T10:46:29;34.30;76.00
57106;DHT22;62662;56.788;23.942;2022-08-19T10:49:01;34.60;75.20
57106;DHT22;62662;56.788;23.942;2022-08-19T10:51:28;35.20;73.40
57106;DHT22;62662;56.788;23.942;2022-08-19T10:54:15;35.70;72.70
57106;DHT22;62662;56.788;23.942;2022-08-19T10:56:56;35.40;72.60
57106;DHT22;62662;56.788;23.942;2022-08-19T10:59:26;36.20;71.30
57106;DHT22;62662;56.788;23.942;2022-08-19T11:02:01;36.00;69.70
57106;DHT22;62662;56.788;23.942;2022-08-19T11:04:28;36.20;69.00
57106;DHT22;62662;56.788;23.942;2022-08-19T11:06:56;36.00;69.70
57106;DHT22;62662;56.788;23.942;2022-08-19T11:09:25;36.70;68.80
57106;DHT22;62662;56.788;23.942;2022-08-19T11:12:00;36.20;68.30
57106;DHT22;62662;56.788;23.942;2022-08-19T11:14:30;36.60;68.00
57106;DHT22;62662;56.788;23.942;2022-08-19T11:17:00;36.60;67.30
57106;DHT22;62662;56.788;23.942;2022-08-19T11:19:27;36.50;67.50
57106;DHT22;62662;56.788;23.942;2022-08-19T11:21:55;36.90;66.50
57106;DHT22;62662;56.788;23.942;2022-08-19T11:24:26;37.40;63.60
57106;DHT22;62662;56.788;23.942;2022-08-19T11:27:01;36.90;63.30
57106;DHT22;62662;56.788;23.942;2022-08-19T11:29:29;36.80;64.10
57106;DHT22;62662;56.788;23.942;2022-08-19T11:31:56;36.50;64.00
57106;DHT22;62662;56.788;23.942;2022-08-19T11:34:25;36.00;64.40
57106;DHT22;62662;56.788;23.942;2022-08-19T11:36:55;36.20;63.90
57106;DHT22;62662;56.788;23.942;2022-08-19T11:39:27;35.50;64.40
57106;DHT22;62662;56.788;23.942;2022-08-19T11:41:55;35.20;65.00
57106;DHT22;62662;56.788;23.942;2022-08-19T11:44:24;35.80;63.60
57106;DHT22;62662;56.788;23.942;2022-08-19T11:46:53;35.70;63.10
57106;DHT22;62662;56.788;23.942;2022-08-19T11:49:20;35.80;63.20
57106;DHT22;62662;56.788;23.942;2022-08-19T11:51:48;36.00;62.80
57106;DHT22;62662;56.788;23.942;2022-08-19T11:54:19;36.10;62.30
57106;DHT22;62662;56.788;23.942;2022-08-19T11:56:47;36.60;61.60
57106;DHT22;62662;56.788;23.942;2022-08-19T11:59:15;36.40;62.30
57106;DHT22;62662;56.788;23.942;2022-08-19T12:01:44;35.80;62.40
57106;DHT22;62662;56.788;23.942;2022-08-19T12:04:11;36.20;62.70
57106;DHT22;62662;56.788;23.942;2022-08-19T12:06:40;36.80;61.70
57106;DHT22;62662;56.788;23.942;2022-08-19T12:09:09;37.00;61.50
57106;DHT22;62662;56.788;23.942;2022-08-19T12:11:38;36.70;62.40
57106;DHT22;62662;56.788;23.942;2022-08-19T12:14:05;37.00;62.60
57106;DHT22;62662;56.788;23.942;2022-08-19T12:16:33;37.10;62.70
57106;DHT22;62662;56.788;23.942;2022-08-19T12:19:04;35.70;61.40
57106;DHT22;62662;56.788;23.942;2022-08-19T12:21:33;35.60;62.80
57106;DHT22;62662;56.788;23.942;2022-08-19T12:24:02;34.90;64.00
57106;DHT22;62662;56.788;23.942;2022-08-19T12:26:30;35.50;64.10
57106;DHT22;62662;56.788;23.942;2022-08-19T12:28:58;35.50;64.20
57106;DHT22;62662;56.788;23.942;2022-08-19T12:31:27;36.10;63.30
57106;DHT22;62662;56.788;23.942;2022-08-19T12:33:55;35.90;62.60
57106;DHT22;62662;56.788;23.942;2022-08-19T12:36:22;35.50;62.90
57106;DHT22;62662;56.788;23.942;2022-08-19T12:38:50;35.10;63.10
57106;DHT22;62662;56.788;23.942;2022-08-19T12:41:18;34.50;63.90
57106;DHT22;62662;56.788;23.942;2022-08-19T12:43:48;34.00;63.90
57106;DHT22;62662;56.788;23.942;2022-08-19T12:46:18;34.00;64.40
57106;DHT22;62662;56.788;23.942;2022-08-19T12:48:48;33.90;64.40
57106;DHT22;62662;56.788;23.942;2022-08-19T12:51:21;34.50;65.00
57106;DHT22;62662;56.788;23.942;2022-08-19T12:53:49;35.00;63.00
57106;DHT22;62662;56.788;23.942;2022-08-19T12:56:16;35.30;63.30
57106;DHT22;62662;56.788;23.942;2022-08-19T12:58:48;35.00;62.80
57106;DHT22;62662;56.788;23.942;2022-08-19T13:01:20;34.20;64.20
57106;DHT22;62662;56.788;23.942;2022-08-19T13:03:48;33.60;65.00
57106;DHT22;62662;56.788;23.942;2022-08-19T13:06:16;32.90;65.80
57106;DHT22;62662;56.788;23.942;2022-08-19T13:08:46;32.40;66.40
57106;DHT22;62662;56.788;23.942;2022-08-19T13:11:15;32.30;67.00
57106;DHT22;62662;56.788;23.942;2022-08-19T13:13:47;32.20;67.20
57106;DHT22;62662;56.788;23.942;2022-08-19T13:16:14;32.10;67.70
57106;DHT22;62662;56.788;23.942;2022-08-19T13:18:43;32.30;67.60
57106;DHT22;62662;56.788;23.942;2022-08-19T13:21:11;32.30;67.10
57106;DHT22;62662;56.788;23.942;2022-08-19T13:23:40;32.10;67.60
57106;DHT22;62662;56.788;23.942;2022-08-19T13:26:09;31.90;67.60
57106;DHT22;62662;56.788;23.942;2022-08-19T13:28:36;31.40;67.80
57106;DHT22;62662;56.788;23.942;2022-08-19T13:31:24;31.40;68.20
57106;DHT22;62662;56.788;23.942;2022-08-19T13:34:10;31.30;68.40
57106;DHT22;62662;56.788;23.942;2022-08-19T13:36:38;31.40;69.00
57106;DHT22;62662;56.788;23.942;2022-08-19T13:39:07;31.40;68.10
57106;DHT22;62662;56.788;23.942;2022-08-19T13:41:36;31.50;68.10
57106;DHT22;62662;56.788;23.942;2022-08-19T13:44:04;31.50;67.60
57106;DHT22;62662;56.788;23.942;2022-08-19T13:46:31;31.30;67.80
57106;DHT22;62662;56.788;23.942;2022-08-19T13:48:58;31.40;66.90
57106;DHT22;62662;56.788;23.942;2022-08-19T13:51:25;31.20;67.10
57106;DHT22;62662;56.788;23.942;2022-08-19T13:53:52;31.20;66.70
57106;DHT22;62662;56.788;23.942;2022-08-19T13:56:20;31.10;66.60
57106;DHT22;62662;56.788;23.942;2022-08-19T13:58:52;31.10;66.80
57106;DHT22;62662;56.788;23.942;2022-08-19T14:01:23;31.00;66.60
57106;DHT22;62662;56.788;23.942;2022-08-19T14:03:51;31.10;67.30
57106;DHT22;62662;56.788;23.942;2022-08-19T14:06:19;31.30;66.50
57106;DHT22;62662;56.788;23.942;2022-08-19T14:08:48;31.40;65.60
57106;DHT22;62662;56.788;23.942;2022-08-19T14:11:15;31.20;65.10
57106;DHT22;62662;56.788;23.942;2022-08-19T14:13:43;31.10;65.20
57106;DHT22;62662;56.788;23.942;2022-08-19T14:16:12;31.10;65.90
57106;DHT22;62662;56.788;23.942;2022-08-19T14:18:40;31.00;65.10
57106;DHT22;62662;56.788;23.942;2022-08-19T14:21:17;30.90;65.20
57106;DHT22;62662;56.788;23.942;2022-08-19T14:23:46;30.90;65.50
57106;DHT22;62662;56.788;23.942;2022-08-19T14:26:16;30.90;65.30
57106;DHT22;62662;56.788;23.942;2022-08-19T14:28:44;30.80;65.70
57106;DHT22;62662;56.788;23.942;2022-08-19T14:31:13;30.90;66.80
57106;DHT22;62662;56.788;23.942;2022-08-19T14:33:49;31.10;66.60
57106;DHT22;62662;56.788;23.942;2022-08-19T14:36:18;30.90;66.70
57106;DHT22;62662;56.788;23.942;2022-08-19T14:38:47;30.90;66.60
57106;DHT22;62662;56.788;23.942;2022-08-19T14:41:19;30.90;66.50
57106;DHT22;62662;56.788;23.942;2022-08-19T14:43:48;30.70;66.60
57106;DHT22;62662;56.788;23.942;2022-08-19T14:46:17;30.80;66.40
57106;DHT22;62662;56.788;23.942;2022-08-19T14:48:47;30.80;67.30
57106;DHT22;62662;56.788;23.942;2022-08-19T14:51:19;30.70;66.70
57106;DHT22;62662;56.788;23.942;2022-08-19T14:53:48;30.70;67.00
57106;DHT22;62662;56.788;23.942;2022-08-19T14:56:19;30.60;67.50
57106;DHT22;62662;56.788;23.942;2022-08-19T14:58:47;30.50;66.60
57106;DHT22;62662;56.788;23.942;2022-08-19T15:01:15;30.50;67.50
57106;DHT22;62662;56.788;23.942;2022-08-19T15:03:41;30.50;68.00
57106;DHT22;62662;56.788;23.942;2022-08-19T15:06:09;30.60;68.00
57106;DHT22;62662;56.788;23.942;2022-08-19T15:08:41;30.60;68.50
57106;DHT22;62662;56.788;23.942;2022-08-19T15:11:15;30.50;67.50
57106;DHT22;62662;56.788;23.942;2022-08-19T15:13:43;30.30;67.10
57106;DHT22;62662;56.788;23.942;2022-08-19T15:16:13;30.20;67.30
57106;DHT22;62662;56.788;23.942;2022-08-19T15:18:45;30.20;67.40
57106;DHT22;62662;56.788;23.942;2022-08-19T15:21:15;30.20;66.70
57106;DHT22;62662;56.788;23.942;2022-08-19T15:23:54;30.30;67.20
57106;DHT22;62662;56.788;23.942;2022-08-19T15:26:22;30.30;67.40
57106;DHT22;62662;56.788;23.942;2022-08-19T15:28:49;30.20;67.60
57106;DHT22;62662;56.788;23.942;2022-08-19T15:31:18;30.20;68.20
57106;DHT22;62662;56.788;23.942;2022-08-19T15:33:56;30.20;68.40
57106;DHT22;62662;56.788;23.942;2022-08-19T15:36:24;30.00;68.10
57106;DHT22;62662;56.788;23.942;2022-08-19T15:38:54;29.90;68.60
57106;DHT22;62662;56.788;23.942;2022-08-19T15:41:26;29.90;68.30
57106;DHT22;62662;56.788;23.942;2022-08-19T15:44:00;29.80;68.60
57106;DHT22;62662;56.788;23.942;2022-08-19T15:46:30;29.70;69.00